WetterOnline ( http://www.wetteronline.de )

Wetter aktuell Hittbergen

Aktuelles Wetter: Boizenburg (46m)

6-stündlich | Neueste Meldungen
Ortszeit Temperatur Wetter
Do, 21.03. 19:00 11.2° C bedeckt
Do, 21.03. 13:00 10.3° C bedeckt
Do, 21.03. 7:00 9.3° C bedeckt
Do, 21.03. 1:00 8.7° C bedeckt
Mi, 20.03. 19:00 9.3° C bedeckt
Mi, 20.03. 13:00 10.5° C bewölkt
Mi, 20.03. 7:00 3.3° C bewölkt
Mi, 20.03. 1:00 1.2° C wolkenlos
Ortszeit Temperatur Wetter
Do, 21.03. 23:00 10.0° C bedeckt
Do, 21.03. 22:40 10.0° C bedeckt
Do, 21.03. 22:30 10.0° C bedeckt
Do, 21.03. 22:20 10.0° C bedeckt
Do, 21.03. 22:10 10.1° C bedeckt
Do, 21.03. 22:00 10.2° C bedeckt
Do, 21.03. 21:50 10.2° C bedeckt
Do, 21.03. 21:30 10.4° C bedeckt
Do, 21.03. 21:00 10.7° C bedeckt
Do, 21.03. 20:30 10.9° C bedeckt
Do, 21.03. 20:00 11.1° C bedeckt
Ortszeit Relative Feuchte Sichtweite
Do, 21.03. 19:00 79% 7 km
Do, 21.03. 13:00 86% 7 km
Do, 21.03. 7:00 89% 4.9 km
Do, 21.03. 1:00 97% 1.9 km
Mi, 20.03. 19:00 89% 4.4 km
Mi, 20.03. 13:00 73% 17 km
Mi, 20.03. 7:00 78% 17 km
Mi, 20.03. 1:00 88% 35 km
Ortszeit Relative Feuchte Sichtweite
Do, 21.03. 23:00 84% 5.0 km
Do, 21.03. 22:40 85% -
Do, 21.03. 22:30 84% -
Do, 21.03. 22:20 84% -
Do, 21.03. 22:10 85% -
Do, 21.03. 22:00 85% 5.0 km
Do, 21.03. 21:50 85% -
Do, 21.03. 21:30 84% 5.0 km
Do, 21.03. 21:00 83% 5.0 km
Do, 21.03. 20:30 82% 6 km
Do, 21.03. 20:00 82% 6 km
Ortszeit Niederschlagsmenge Niederschlagsart
Do, 21.03. 19:00 0.0 l/m2 in 12 Std. -
Do, 21.03. 13:00 0.0 l/m2 in 6 Std. -
Do, 21.03. 7:00 0.0 l/m2 in 12 Std. -
Do, 21.03. 1:00 0.0 l/m2 in 6 Std. -
Mi, 20.03. 19:00 0.1 l/m2 in 12 Std. Regen
Mi, 20.03. 13:00 0.1 l/m2 in 6 Std. Regen
Mi, 20.03. 7:00 0.0 l/m2 in 12 Std. -
Mi, 20.03. 1:00 0.0 l/m2 in 6 Std. -
Ortszeit Niederschlagsmenge Niederschlagsart
Do, 21.03. 23:00 0.0 l/m2 in 1 Std. -
Do, 21.03. 22:40 keine Meldung -
Do, 21.03. 22:30 0.0 l/m2 in 1 Std. -
Do, 21.03. 22:20 keine Meldung -
Do, 21.03. 22:10 keine Meldung -
Do, 21.03. 22:00 0.0 l/m2 in 1 Std. -
Do, 21.03. 21:50 keine Meldung -
Do, 21.03. 21:30 0.0 l/m2 in 1 Std. -
Do, 21.03. 21:00 0.0 l/m2 in 1 Std. -
Do, 21.03. 20:30 0.0 l/m2 in 1 Std. -
Do, 21.03. 20:00 0.0 l/m2 in 1 Std. -
Ortszeit Stärke Spitze Richtung
km/h Bft. km/h Grad Sektor
Do, 21.03. 19:00 11 2 28 270° W
Do, 21.03. 13:00 17 3 33 250° W
Do, 21.03. 7:00 15 3 22 230° SW
Do, 21.03. 1:00 11 2 28 250° W
Mi, 20.03. 19:00 14 3 36 250° W
Mi, 20.03. 13:00 20 4 30 240° SW
Mi, 20.03. 7:00 13 3 22 210° SW
Mi, 20.03. 1:00 7 2 22 210° SW
Ortszeit Stärke Spitze Richtung
km/h Bft. km/h Grad Sektor
Do, 21.03. 23:00 9 2 19 280° W
Do, 21.03. 22:40 7 2 - 280° W
Do, 21.03. 22:30 7 2 18 290° W
Do, 21.03. 22:20 7 2 - 290° W
Do, 21.03. 22:10 6 1 - 300° NW
Do, 21.03. 22:00 7 2 14 300° NW
Do, 21.03. 21:50 7 2 - 300° NW
Do, 21.03. 21:30 7 2 13 300° NW
Do, 21.03. 21:00 7 2 19 290° W
Do, 21.03. 20:30 9 2 19 290° W
Do, 21.03. 20:00 13 3 26 270° W
Ortszeit Untergrenze Bedeckung Gattung
total tief tief mittel hoch
Do, 21.03. 19:00 540 m 8/8 8/8 - - -
Do, 21.03. 13:00 330 m 8/8 8/8 - - -
Do, 21.03. 7:00 510 m 8/8 8/8 - - -
Do, 21.03. 1:00 450 m 8/8 8/8 - - -
Mi, 20.03. 19:00 300 m 8/8 8/8 - - -
Mi, 20.03. 13:00 1020 m 7/8 8/8 - - -
Mi, 20.03. 7:00 1410 m 7/8 7/8 - - -
Mi, 20.03. 1:00 4500 m 0/8 0/8 - - -
Ortszeit Bedeckungsgrad in Achtel und Wolkenuntergrenze
Do, 21.03. 23:00 8(390m)
Do, 21.03. 22:40 8(420m)
Do, 21.03. 22:30 8(420m)
Do, 21.03. 22:20 8(420m)
Do, 21.03. 22:10 8(450m)
Do, 21.03. 22:00 8(480m)
Do, 21.03. 21:50 8(480m)
Do, 21.03. 21:30 8(510m)
Do, 21.03. 21:00 8(510m)
Do, 21.03. 20:30 8(510m)
Do, 21.03. 20:00 8(510m)
Ortszeit Luftdruck NN (hPa) Tendenz (hPa in 3 Std.)
Do, 21.03. 19:00 1033 - 0,1
Do, 21.03. 13:00 1034 + 0,3
Do, 21.03. 7:00 1033 0,0
Do, 21.03. 1:00 1033 + 0,3
Mi, 20.03. 19:00 1032 + 0,9
Mi, 20.03. 13:00 1032 + 0,5
Mi, 20.03. 7:00 1030 - 0,1
Mi, 20.03. 1:00 1031 + 0,7
Ortszeit Luftdruck NN (hPa) Tendenz (hPa in 3 Std.)
Do, 21.03. 23:00 1034 + 0,7
Do, 21.03. 22:40 1034 keine Meldung
Do, 21.03. 22:30 1034 + 0,9
Do, 21.03. 22:20 1034 keine Meldung
Do, 21.03. 22:10 1034 keine Meldung
Do, 21.03. 22:00 1034 + 0,8
Do, 21.03. 21:50 1034 keine Meldung
Do, 21.03. 21:30 1034 + 0,9
Do, 21.03. 21:00 1033 + 0,7
Do, 21.03. 20:30 1033 + 0,4
Do, 21.03. 20:00 1033 + 0,3
Ortszeit Schneehöhe (cm)
Do, 21.03. 19:00 0
Do, 21.03. 13:00 0
Do, 21.03. 7:00 0
Do, 21.03. 1:00 0
Mi, 20.03. 19:00 0
Mi, 20.03. 13:00 0
Mi, 20.03. 7:00 0
Mi, 20.03. 1:00 0
Ortszeit Schneehöhe (cm)
Do, 21.03. 23:00 0
Do, 21.03. 22:40 0
Do, 21.03. 22:30 0
Do, 21.03. 22:20 0
Do, 21.03. 22:10 0
Do, 21.03. 22:00 0
Do, 21.03. 21:50 0
Do, 21.03. 21:30 0
Do, 21.03. 21:00 0
Do, 21.03. 20:30 0
Do, 21.03. 20:00 0
Link zu dieser Seite / Seite empfehlen

Das Wetter in ...